Latest Weather Observations for Archerfield

IDQ60901

Issued at 5:45 pm EST Friday 1 August 2014 (issued every 10 minutes, with the page automatically refreshed every 10 minutes)

About weather observations | Map of Brisbane area stations | Latest observations for Brisbane area | Other Formats
Station Details ID: 040211 Name: ARCHERFIELD AIRPORT Lat: -27.57 Lon: 153.01 Height: 12.5 m
Data from the previous 72 hours. | See also: Recent months at Archerfield
Date/Time
EST
Tmp

°C
App
Tmp
°C
Dew
Point
°C
Rel
Hum
%
Delta-T

°C
Wind Press
QNH
hPa
Press
MSL
hPa
Rain
since
9 am
mm
Dir
 
Spd
km/h
Gust
km/h
Spd
kts
Gust
kts
01/05:30pm 24.4 19.6 4.7 28 9.9 WNW 19 26 10 14 1011.2 - 0.0
01/05:00pm 26.0 21.2 4.5 25 10.8 WNW 19 24 10 13 1010.8 - 0.0
01/04:30pm 27.4 22.4 4.5 23 11.6 WNW 20 33 11 18 1010.8 - 0.0
01/04:00pm 28.0 20.5 4.3 22 12.0 W 33 48 18 26 1010.7 - 0.0
01/03:30pm 28.5 21.6 4.7 22 12.2 WNW 30 39 16 21 1010.5 - 0.0
01/03:00pm 28.2 21.5 5.7 24 11.7 WNW 30 43 16 23 1010.7 1010.6 0.0
01/02:30pm 29.1 23.2 7.6 26 11.6 W 28 43 15 23 1010.9 - 0.0
01/02:00pm 27.9 23.9 9.2 31 10.3 NNW 20 28 11 15 1011.3 - 0.0
01/01:30pm 27.2 23.3 9.5 33 9.8 W 20 32 11 17 1011.7 - 0.0
01/01:00pm 28.0 23.9 10.2 33 10.0 NW 22 30 12 16 1012.1 - 0.0
01/12:30pm 27.3 23.3 10.5 35 9.5 NW 22 32 12 17 1012.7 - 0.0
01/12:00pm 26.4 21.2 10.1 36 9.1 W 28 35 15 19 1013.4 1013.3 0.0
01/11:59am 26.7 21.4 10.0 35 9.3 W 28 35 15 19 1013.4 - 0.0
01/11:30am 25.1 23.9 11.6 42 7.7 NNW 9 15 5 8 1014.0 - 0.0
01/11:00am 23.3 22.7 11.7 48 6.5 NW 6 13 3 7 1014.9 - 0.0
01/10:30am 22.3 22.2 12.0 52 5.8 NNW 4 9 2 5 1015.4 - 0.0
01/10:00am 20.8 21.0 11.7 56 5.1 E 2 6 1 3 1015.8 - 0.0
01/09:30am 19.9 20.2 12.2 61 4.3 NE 2 6 1 3 1016.2 - 0.0
01/09:00am 17.5 18.3 12.4 72 2.8 CALM 0 6 0 3 1016.3 1016.2 0.0
01/08:30am 14.7 14.9 11.7 82 1.6 W 2 6 1 3 1016.5 - 0.0
01/08:00am 12.8 12.7 10.9 88 1.0 SSW 2 7 1 4 1016.3 - 0.0
01/07:30am 10.9 11.0 10.0 94 0.5 CALM 0 0 0 0 1016.4 - 0.0
01/07:00am 9.5 8.1 8.7 95 0.4 S 6 7 3 4 1016.4 - 0.0
01/06:30am 8.9 7.2 8.3 96 0.3 S 7 11 4 6 1016.2 - 0.0
01/06:00am 8.4 6.4 7.3 93 0.5 S 7 9 4 5 1016.0 1015.9 0.0
01/05:30am 9.3 8.1 8.2 93 0.5 S 4 6 2 3 1016.0 - 0.0
01/05:00am 9.4 8.5 7.8 90 0.8 SSW 2 6 1 3 1015.8 - 0.0
01/04:30am 10.4 8.8 8.8 90 0.8 S 7 9 4 5 1015.7 - 0.0
01/04:00am 11.1 9.0 9.9 92 0.6 S 11 13 6 7 1015.7 - 0.0
01/03:30am 11.3 9.6 9.9 91 0.7 S 9 11 5 6 1015.4 - 0.0
01/03:00am 11.5 10.4 9.8 89 0.9 ESE 6 9 3 5 1015.7 1015.6 0.0
01/02:30am 12.2 11.8 9.6 84 1.3 NE 2 7 1 4 1015.9 - 0.0
01/02:00am 14.3 13.6 11.5 83 1.5 ENE 6 7 3 4 1016.1 - 0.0
01/01:30am 14.4 14.8 11.2 81 1.7 CALM 0 7 0 4 1016.5 - 0.0
01/01:00am 15.1 14.1 10.9 76 2.2 N 7 9 4 5 1016.4 - 0.0
01/12:30am 15.7 13.4 11.7 77 2.2 N 15 19 8 10 1016.7 - 0.0
01/12:00am 17.0 15.1 11.9 72 2.8 N 13 20 7 11 1016.9 1016.8 0.0
 
Date/Time
EST
Tmp

°C
App
Tmp
°C
Dew
Point
°C
Rel
Hum
%
Delta-T

°C
Wind Press
QNH
hPa
Press
MSL
hPa
Rain
since
9 am
mm
Dir
 
Spd
km/h
Gust
km/h
Spd
kts
Gust
kts
31/11:30pm 17.6 15.5 12.3 71 2.9 NNW 15 22 8 12 1017.1 - 0.0
31/11:00pm 17.5 14.9 12.0 70 3.0 NNW 17 24 9 13 1016.9 - 0.0
31/10:30pm 17.3 14.3 12.0 71 2.9 N 19 28 10 15 1016.9 - 0.0
31/10:00pm 17.7 14.7 12.4 71 2.9 N 20 24 11 13 1016.9 - 0.0
31/09:30pm 17.8 14.8 12.5 71 2.9 N 20 26 11 14 1016.9 - 0.0
31/09:00pm 17.8 14.8 12.5 71 2.9 N 20 26 11 14 1017.0 1016.9 0.0
31/08:30pm 18.2 15.2 12.4 69 3.2 N 20 28 11 15 1017.0 - 0.0
31/08:00pm 18.2 15.0 12.0 67 3.4 N 20 28 11 15 1016.9 - 0.0
31/07:30pm 17.6 14.9 11.6 68 3.3 N 17 26 9 14 1016.7 - 0.0
31/07:00pm 17.5 16.0 11.8 69 3.1 N 11 15 6 8 1016.2 - 0.0
31/06:30pm 18.5 15.8 12.9 70 3.1 N 19 24 10 13 1016.1 - 0.0
31/06:00pm 18.9 15.9 13.7 72 3.0 NNE 22 28 12 15 1015.8 1015.7 0.0
31/05:30pm 19.3 16.9 13.7 70 3.2 NNE 19 24 10 13 1015.8 - 0.0
31/05:00pm 20.4 17.0 12.6 61 4.4 NNE 22 28 12 15 1015.7 - 0.0
31/04:30pm 21.7 18.0 12.8 57 5.1 NNE 24 32 13 17 1015.5 - 0.0
31/04:00pm 22.6 18.3 12.0 51 6.0 NE 26 30 14 16 1015.3 - 0.0
31/03:30pm 24.0 19.3 9.2 39 8.0 NNE 24 30 13 16 1015.4 - 0.0
31/03:00pm 24.5 20.2 8.0 35 8.8 NNE 20 28 11 15 1015.5 1015.4 0.0
31/02:30pm 24.8 20.2 6.5 31 9.5 N 20 26 11 14 1015.6 - 0.0
31/02:00pm 25.3 20.5 5.5 28 10.1 NNE 20 26 11 14 1016.0 - 0.0
31/01:30pm 25.9 23.4 4.9 26 10.6 NNW 7 17 4 9 1016.4 - 0.0
31/01:00pm 25.0 23.2 5.2 28 10.0 W 4 9 2 5 1017.1 - 0.0
31/12:30pm 23.7 21.6 6.5 33 8.8 SSE 7 13 4 7 1018.0 - 0.0
31/12:00pm 23.0 21.1 6.7 35 8.4 NE 6 15 3 8 1018.8 1018.7 0.0
31/11:30am 21.5 19.2 5.8 36 7.9 ENE 7 11 4 6 1019.5 - 0.0
31/11:00am 19.9 18.4 5.2 38 7.2 SE 2 7 1 4 1020.3 - 0.0
31/10:30am 18.1 16.7 5.7 44 6.0 SSE 2 7 1 4 1021.0 - 0.0
31/10:00am 17.2 15.9 5.8 47 5.5 SE 2 7 1 4 1021.5 - 0.0
31/09:30am 14.8 13.0 5.3 53 4.5 SSW 4 7 2 4 1021.8 - 0.0
31/09:00am 13.2 11.0 5.4 59 3.6 SW 6 7 3 4 1022.0 1021.9 0.0
31/08:30am 11.5 9.7 5.4 66 2.8 SW 4 7 2 4 1021.8 - 0.0
31/08:00am 9.9 9.1 6.6 80 1.5 CALM 0 0 0 0 1021.5 - 0.0
31/07:30am 7.2 6.1 5.3 88 0.8 CALM 0 0 0 0 1021.2 - 0.0
31/07:00am 6.4 5.1 3.9 84 1.1 CALM 0 0 0 0 1020.9 - 0.0
31/06:30am 5.9 4.7 4.4 90 0.6 CALM 0 7 0 4 1020.5 - 0.0
31/06:00am 3.8 1.0 2.3 90 0.6 N 6 9 3 5 1020.4 1020.3 0.0
31/05:30am 4.7 3.3 3.8 94 0.4 CALM 0 0 0 0 1020.2 - 0.0
31/05:00am 4.5 2.9 2.5 87 0.8 CALM 0 4 0 2 1020.1 - 0.0
31/04:30am 7.4 5.0 4.5 82 1.3 SSE 6 9 3 5 1020.0 - 0.0
31/04:00am 6.7 4.8 4.9 88 0.8 S 4 7 2 4 1020.0 - 0.0
31/03:30am 6.7 5.8 6.1 96 0.3 CALM 0 4 0 2 1020.0 - 0.0
31/03:28am 6.7 5.9 6.3 97 0.2 CALM 0 4 0 2 1020.0 - 0.0
31/03:00am 4.6 2.8 3.4 92 0.5 WSW 2 6 1 3 1020.1 1020.0 0.0
31/02:58am 4.8 3.0 3.6 92 0.5 WSW 2 6 1 3 1020.1 - 0.0
31/02:30am 5.9 4.0 5.0 94 0.4 S 4 7 2 4 1020.1 - 0.0
31/02:00am 6.9 5.2 6.0 94 0.4 S 4 7 2 4 1020.0 - 0.0
31/01:30am 7.6 6.9 6.9 95 0.3 CALM 0 0 0 0 1020.1 - 0.0
31/01:00am 7.5 6.3 6.4 93 0.5 SSW 2 6 1 3 1020.2 - 0.0
31/12:30am 8.2 6.3 6.8 91 0.6 S 6 9 3 5 1020.2 - 0.0
31/12:15am 10.1 8.7 9.5 96 0.3 S 7 11 4 6 1020.3 - 0.0
31/12:00am 9.9 7.7 9.3 96 0.3 S 11 15 6 8 1020.4 1020.3 0.0
 
Date/Time
EST
Tmp

°C
App
Tmp
°C
Dew
Point
°C
Rel
Hum
%
Delta-T

°C
Wind Press
QNH
hPa
Press
MSL
hPa
Rain
since
9 am
mm
Dir
 
Spd
km/h
Gust
km/h
Spd
kts
Gust
kts
30/11:59pm 9.8 7.6 9.2 96 0.3 S 11 17 6 9 1020.4 - 0.0
30/11:30pm 9.5 7.6 7.6 88 0.9 SSW 7 7 4 4 1020.3 - 0.0
30/11:00pm 10.9 10.0 9.3 90 0.8 WSW 4 7 2 4 1020.4 - 0.0
30/10:30pm 11.9 11.7 10.3 90 0.8 N 2 6 1 3 1020.5 - 0.0
30/10:00pm 12.7 13.1 11.4 92 0.7 CALM 0 0 0 0 1020.6 - 0.0
30/09:30pm 12.3 11.8 9.5 83 1.4 NNE 2 6 1 3 1020.7 - 0.0
30/09:00pm 14.1 13.5 11.8 86 1.2 NE 6 7 3 4 1020.6 1020.5 0.0
30/08:30pm 15.5 14.5 13.5 88 1.1 ENE 11 15 6 8 1020.4 - 0.0
30/08:00pm 16.5 16.4 14.9 90 0.9 NE 9 15 5 8 1020.4 - 0.0
30/07:30pm 14.7 13.8 12.6 87 1.1 N 9 13 5 7 1020.1 - 0.0
30/07:00pm 15.1 13.7 12.2 83 1.6 NNE 11 13 6 7 1020.1 - 0.0
30/06:30pm 16.6 15.4 11.5 72 2.8 NE 9 13 5 7 1019.9 - 0.0
30/06:00pm 18.3 16.3 8.8 54 4.9 ENE 9 13 5 7 1019.5 1019.4 0.0
30/05:30pm 17.9 14.9 5.8 45 5.9 NNE 11 15 6 8 1019.0 - 0.0
30/05:00pm 20.3 15.5 4.8 36 7.5 NNE 19 20 10 11 1018.8 - 0.0
30/04:30pm 24.5 21.2 -1.3 18 11.5 NE 6 9 3 5 1018.5 - 0.0
30/04:00pm 25.0 21.6 -1.7 17 11.9 SE 6 9 3 5 1018.4 - 0.0
30/03:30pm 24.9 21.0 -1.8 17 11.9 SW 9 17 5 9 1018.3 - 0.0
30/03:00pm 24.8 20.8 -1.9 17 11.8 WSW 9 15 5 8 1018.4 1018.3 0.0
30/02:30pm 24.6 19.5 -2.0 17 11.7 W 15 22 8 12 1018.5 - 0.0
30/02:00pm 24.7 20.2 -0.4 19 11.4 WSW 13 20 7 11 1018.7 - 0.0
30/01:30pm 23.8 19.8 0.8 22 10.6 SW 11 22 6 12 1018.9 - 0.0
30/01:00pm 23.4 19.7 -0.1 21 10.7 WSW 9 19 5 10 1019.3 - 0.0
30/12:30pm 22.9 17.9 -1.2 20 10.7 W 15 20 8 11 1019.9 - 0.0
30/12:00pm 22.2 17.8 0.1 23 9.9 W 13 20 7 11 1020.7 1020.6 0.0
30/11:30am 21.0 16.6 2.8 30 8.6 SW 15 20 8 11 1021.5 - 0.0
30/11:00am 20.0 15.7 3.3 33 7.9 SW 15 22 8 12 1022.0 - 0.0
30/10:30am 19.3 15.0 3.5 35 7.4 WSW 15 20 8 11 1022.3 - 0.0
30/10:00am 17.7 14.5 5.0 43 6.1 W 11 15 6 8 1022.7 - 0.0
30/09:30am 15.9 12.3 5.2 49 5.1 SW 13 15 7 8 1023.1 - 0.0
30/09:00am 14.1 11.8 5.7 57 4.0 WSW 7 11 4 6 1023.2 1023.1 0.0
30/08:30am 11.8 9.4 5.4 65 3.0 WSW 7 11 4 6 1023.2 - 0.0
30/08:00am 9.0 7.3 6.1 82 1.3 SSW 4 7 2 4 1023.2 - 0.0
30/07:30am 6.4 4.0 4.2 86 0.9 S 6 7 3 4 1022.9 - 0.0
30/07:00am 4.6 3.2 3.4 92 0.5 CALM 0 0 0 0 1022.9 - 0.0
30/06:30am 2.8 1.0 1.2 89 0.6 CALM 0 4 0 2 1022.6 - 0.0
30/06:00am 4.7 1.9 3.0 89 0.7 S 7 9 4 5 1022.3 1022.2 0.0
30/05:30am 5.7 4.5 4.8 94 0.4 CALM 0 0 0 0 1021.8 - 0.0
30/05:00am 3.7 2.1 2.7 93 0.4 CALM 0 0 0 0 1021.5 - 0.0
30/04:30am 4.7 2.1 3.2 90 0.6 S 6 11 3 6 1021.3 - 0.0
30/04:00am 5.2 4.0 4.5 95 0.3 CALM 0 0 0 0 1021.1 - 0.0
30/03:30am 4.9 3.1 3.6 91 0.5 SSW 2 7 1 4 1021.3 - 0.0
30/03:00am 6.0 3.0 4.3 89 0.7 S 9 11 5 6 1021.3 1021.2 0.0
30/02:30am 6.3 3.4 4.6 89 0.7 S 9 11 5 6 1021.2 - 0.0
30/02:00am 6.6 4.2 4.4 86 0.9 S 6 7 3 4 1021.2 - 0.0
30/01:30am 7.1 4.6 4.8 85 1.0 SSW 7 11 4 6 1021.5 - 0.0
30/01:00am 7.5 6.5 5.8 89 0.8 CALM 0 0 0 0 1021.5 - 0.0
30/12:30am 7.3 5.1 5.4 88 0.8 SSE 6 7 3 4 1021.9 - 0.0
30/12:00am 6.7 4.1 4.2 84 1.1 SSW 7 11 4 6 1021.9 1021.8 0.0
 
Date/Time
EST
Tmp

°C
App
Tmp
°C
Dew
Point
°C
Rel
Hum
%
Delta-T

°C
Wind Press
QNH
hPa
Press
MSL
hPa
Rain
since
9 am
mm
Dir
 
Spd
km/h
Gust
km/h
Spd
kts
Gust
kts
29/11:30pm 8.6 6.0 6.1 84 1.1 S 9 13 5 7 1021.6 - 0.0
29/11:00pm 7.0 4.3 3.6 79 1.4 SSW 7 9 4 5 1021.6 - 0.0
29/10:30pm 9.1 6.9 5.3 77 1.7 SSE 6 7 3 4 1021.5 - 0.0
29/10:00pm 8.8 6.5 5.5 80 1.5 SSW 7 7 4 4 1021.2 - 0.0
29/09:30pm 9.6 7.2 4.4 70 2.3 S 6 7 3 4 1021.1 - 0.0
29/09:00pm 10.7 9.6 5.3 69 2.5 CALM 0 0 0 0 1021.0 1020.9 0.0
29/08:30pm 12.5 10.2 5.7 63 3.2 ESE 7 9 4 5 1020.8 - 0.0
29/08:00pm 12.8 11.0 5.2 60 3.5 ESE 4 7 2 4 1020.5 - 0.0
29/07:30pm 12.9 11.7 4.8 58 3.7 CALM 0 0 0 0 1020.3 - 0.0
29/07:00pm 15.0 11.6 3.8 47 5.1 ESE 11 13 6 7 1020.1 - 0.0
29/06:30pm 16.6 14.9 1.9 37 6.6 CALM 0 0 0 0 1020.0 - 0.0
29/06:00pm 19.0 15.8 0.6 29 8.1 W 7 7 4 4 1019.6 1019.5 0.0

Latest Capital City Observations: Canberra | Sydney | Melbourne | Brisbane | Adelaide | Perth | Hobart | Darwin

Other Formats:

Comma delimited format used in spreadsheet applications
http://www.bom.gov.au/fwo/IDQ60901/IDQ60901.94575.axf

JavaScript Object Notation format (JSON) in row-major order
http://www.bom.gov.au/fwo/IDQ60901/IDQ60901.94575.json